| time (UTC) | temp C | wind direction | speed KPH | gust KPH | rain 1hr cm | rain 24hr cm | rain mn cm | humidity % | barometer mb |
| 20260506124044 | 14 | 351 | 1.6 | 11.3 | 0.00 | 0.00 | 0.00 | 45 | 1010.8 |
| 20260506123036 | 14 | 20 | 1.6 | 9.7 | 0.00 | 0.00 | 0.00 | 44 | 1010.8 |
| 20260506122033 | 15 | 276 | 3.2 | 14.5 | 0.00 | 0.00 | 0.00 | 43 | 1010.8 |
| 20260506121025 | 15 | 153 | 3.2 | 9.7 | 0.00 | 0.00 | 0.00 | 44 | 1010.8 |
| 20260506120022 | 15 | 117 | 1.6 | 9.7 | 0.00 | 0.00 | 0.00 | 44 | 1010.7 |
| 20260506115019 | 14 | 301 | 1.6 | 9.7 | 0.00 | 0.00 | 0.00 | 43 | 1010.6 |
| 20260506114112 | 14 | 298 | 3.2 | 9.7 | 0.00 | 0.00 | 0.00 | 43 | 1010.6 |
| 20260506113109 | 14 | 232 | 3.2 | 11.3 | 0.00 | 0.00 | 0.00 | 43 | 1010.5 |
| 20260506112101 | 14 | 12 | 1.6 | 6.4 | 0.00 | 0.00 | 0.00 | 45 | 1010.5 |
| 20260506111058 | 13 | 256 | 1.6 | 9.7 | 0.00 | 0.00 | 0.00 | 45 | 1010.6 |
| 20260506110056 | 13 | 170 | 3.2 | 6.4 | 0.00 | 0.00 | 0.00 | 46 | 1010.6 |
| 20260506105048 | 13 | 353 | 3.2 | 11.3 | 0.00 | 0.00 | 0.00 | 46 | 1010.6 |
| 20260506104045 | 13 | 233 | 3.2 | 14.5 | 0.00 | 0.00 | 0.00 | 46 | 1010.6 |
| 20260506103037 | 13 | 9 | 1.6 | 9.7 | 0.00 | 0.00 | 0.00 | 47 | 1010.5 |
| 20260506102039 | 13 | 169 | 3.2 | 9.7 | 0.00 | 0.00 | 0.00 | 47 | 1010.6 |
| 20260506101031 | 13 | 305 | 1.6 | 6.4 | 0.00 | 0.00 | 0.00 | 49 | 1010.5 |
| 20260506100023 | 13 | 222 | 3.2 | 11.3 | 0.00 | 0.00 | 0.00 | 48 | 1010.5 |
| 20260506095020 | 12 | 149 | 3.2 | 9.7 | 0.00 | 0.00 | 0.00 | 48 | 1010.4 |
| 20260506094112 | 12 | 83 | 1.6 | 9.7 | 0.00 | 0.00 | 0.00 | 49 | 1010.4 |
| 20260506093110 | 12 | 339 | 3.2 | 9.7 | 0.00 | 0.00 | 0.00 | 48 | 1010.5 |
| 20260506092103 | 12 | 23 | 3.2 | 9.7 | 0.00 | 0.00 | 0.00 | 49 | 1010.5 |
| 20260506091058 | 12 | 25 | 1.6 | 6.4 | 0.00 | 0.00 | 0.00 | 51 | 1010.4 |
| 20260506090056 | 12 | 87 | 1.6 | 9.7 | 0.00 | 0.00 | 0.00 | 52 | 1010.4 |
| 20260506085047 | 12 | 13 | 1.6 | 6.4 | 0.00 | 0.00 | 0.00 | 52 | 1010.2 |
| 20260506084044 | 11 | 344 | 3.2 | 9.7 | 0.00 | 0.00 | 0.00 | 52 | 1010.3 |
| 20260506083036 | 11 | 210 | 1.6 | 6.4 | 0.00 | 0.00 | 0.00 | 53 | 1010.2 |
| 20260506082033 | 11 | 342 | 3.2 | 9.7 | 0.00 | 0.00 | 0.00 | 53 | 1010.2 |
| 20260506081025 | 11 | 82 | 1.6 | 6.4 | 0.00 | 0.00 | 0.00 | 55 | 1010.1 |
| 20260506073109 | 10 | 186 | 1.6 | 6.4 | 0.00 | 0.00 | 0.00 | 55 | 1010.0 |
| 20260506071058 | 10 | 14 | 1.6 | 6.4 | 0.00 | 0.00 | 0.00 | 58 | 1009.8 |
| 20260506062034 | 9 | 223 | 1.6 | 6.4 | 0.00 | 0.00 | 0.00 | 62 | 1009.5 |
| 20260506061032 | 9 | 43 | 1.6 | 11.3 | 0.00 | 0.00 | 0.00 | 62 | 1009.5 |
| 20260506051100 | 8 | 203 | 0.0 | 3.2 | 0.00 | 0.00 | 0.00 | 69 | 1009.4 |
| 20260506045049 | 8 | 42 | 1.6 | 6.4 | 0.00 | 0.00 | 0.00 | 74 | 1009.3 |
| 20260506044046 | 7 | 61 | 0.0 | 6.4 | 0.00 | 0.00 | 0.00 | 79 | 1009.3 |
| 20260506043044 | 7 | 225 | 0.0 | 3.2 | 0.00 | 0.00 | 0.00 | 82 | 1009.3 |
| 20260506042036 | 7 | 140 | 0.0 | 3.2 | 0.00 | 0.00 | 0.00 | 83 | 1009.4 |
| 20260506041033 | 7 | 194 | 1.6 | 3.2 | 0.00 | 0.00 | 0.00 | 83 | 1009.3 |
| 20260506040026 | 7 | 304 | 0.0 | 3.2 | 0.00 | 0.00 | 0.00 | 84 | 1009.2 |
| 20260506035022 | 6 | 154 | 1.6 | 3.2 | 0.00 | 0.00 | 0.00 | 84 | 1009.2 |
| 20260506034020 | 6 | 188 | 0.0 | 3.2 | 0.00 | 0.00 | 0.00 | 84 | 1009.3 |
| 20260506033111 | 7 | 0.0 | 0.0 | 0.00 | 0.00 | 0.00 | 85 | 1009.3 | |
| 20260506032109 | 7 | 203 | 0.0 | 3.2 | 0.00 | 0.00 | 0.00 | 86 | 1009.3 |
| 20260506031100 | 7 | 180 | 0.0 | 3.2 | 0.00 | 0.00 | 0.00 | 86 | 1009.4 |
| 20260506030057 | 7 | 233 | 0.0 | 3.2 | 0.00 | 0.00 | 0.00 | 86 | 1009.5 |
| 20260506025049 | 7 | 225 | 0.0 | 3.2 | 0.00 | 0.00 | 0.00 | 85 | 1009.6 |
| 20260506024046 | 6 | 182 | 1.6 | 6.4 | 0.00 | 0.00 | 0.00 | 86 | 1009.6 |
| 20260506023044 | 6 | 195 | 0.0 | 3.2 | 0.00 | 0.00 | 0.00 | 86 | 1009.8 |
| 20260506022035 | 7 | 0.0 | 3.2 | 0.00 | 0.00 | 0.00 | 85 | 1009.8 | |
| 20260506021033 | 7 | 169 | 0.0 | 3.2 | 0.00 | 0.00 | 0.00 | 84 | 1009.9 |
| 20260506020024 | 7 | 135 | 0.0 | 3.2 | 0.00 | 0.00 | 0.00 | 84 | 1010.1 |
| 20260506015022 | 7 | 203 | 0.0 | 6.4 | 0.00 | 0.00 | 0.00 | 83 | 1010.1 |
| 20260506014119 | 7 | 0.0 | 3.2 | 0.00 | 0.00 | 0.00 | 82 | 1010.1 | |
| 20260506013110 | 7 | 0.0 | 0.0 | 0.00 | 0.00 | 0.00 | 81 | 1010.1 | |
| 20260506012108 | 8 | 0.0 | 0.0 | 0.00 | 0.00 | 0.00 | 81 | 1010.0 | |
| 20260506011059 | 8 | 0.0 | 0.0 | 0.00 | 0.00 | 0.00 | 81 | 1010.1 | |
| 20260506010057 | 8 | 0.0 | 0.0 | 0.00 | 0.00 | 0.00 | 82 | 1010.2 | |
| 20260506005048 | 7 | 0.0 | 0.0 | 0.00 | 0.00 | 0.00 | 83 | 1010.3 | |
| 20260506004045 | 7 | 0.0 | 0.0 | 0.00 | 0.00 | 0.00 | 83 | 1010.4 | |
| 20260506003037 | 7 | 0.0 | 0.0 | 0.00 | 0.00 | 0.00 | 83 | 1010.5 | |
| 20260506002034 | 7 | 0.0 | 0.0 | 0.00 | 0.00 | 0.00 | 82 | 1010.6 | |
| 20260506001032 | 8 | 0.0 | 3.2 | 0.00 | 0.00 | 0.00 | 81 | 1010.6 | |
| 20260506000024 | 8 | 0.0 | 3.2 | 0.00 | 0.00 | 0.00 | 81 | 1010.7 | |
| 20260505235021 | 8 | 0.0 | 0.0 | 0.00 | 0.00 | 0.00 | 81 | 1010.7 | |
| 20260505234113 | 8 | 0.0 | 0.0 | 0.00 | 0.00 | 0.00 | 80 | 1010.6 | |
| 20260505233110 | 8 | 0.0 | 0.0 | 0.00 | 0.00 | 0.00 | 79 | 1010.7 | |
| 20260505232108 | 8 | 0.0 | 0.0 | 0.00 | 0.00 | 0.00 | 78 | 1010.7 | |
| 20260505231100 | 8 | 0.0 | 0.0 | 0.00 | 0.00 | 0.00 | 78 | 1010.7 | |
| 20260505230057 | 8 | 0.0 | 3.2 | 0.00 | 0.00 | 0.00 | 78 | 1010.7 | |
| 20260505225049 | 8 | 0.0 | 3.2 | 0.00 | 0.00 | 0.00 | 78 | 1010.6 | |
| 20260505224046 | 8 | 0.0 | 3.2 | 0.00 | 0.00 | 0.00 | 77 | 1010.8 | |
| 20260505223044 | 8 | 0.0 | 3.2 | 0.00 | 0.00 | 0.00 | 77 | 1010.8 | |
| 20260505222036 | 8 | 158 | 0.0 | 3.2 | 0.00 | 0.00 | 0.00 | 76 | 1010.8 |
| 20260505221033 | 8 | 0.0 | 0.0 | 0.00 | 0.00 | 0.00 | 76 | 1010.9 | |
| 20260505220025 | 8 | 158 | 0.0 | 3.2 | 0.00 | 0.00 | 0.00 | 75 | 1011.1 |
| 20260505215022 | 9 | 0.0 | 3.2 | 0.00 | 0.00 | 0.00 | 75 | 1011.0 | |
| 20260505214020 | 9 | 315 | 0.0 | 3.2 | 0.00 | 0.00 | 0.00 | 74 | 1011.2 |
| 20260505213112 | 9 | 180 | 0.0 | 3.2 | 0.00 | 0.00 | 0.00 | 74 | 1011.3 |
| 20260505212109 | 9 | 0 | 0.0 | 3.2 | 0.00 | 0.00 | 0.00 | 72 | 1011.3 |
| 20260505211101 | 10 | 0.0 | 3.2 | 0.00 | 0.00 | 0.00 | 72 | 1011.2 | |
| 20260505210059 | 10 | 0 | 0.0 | 6.4 | 0.00 | 0.00 | 0.00 | 71 | 1011.2 |
| 20260505205056 | 10 | 225 | 0.0 | 3.2 | 0.00 | 0.00 | 0.00 | 69 | 1011.3 |
| 20260505204048 | 10 | 203 | 0.0 | 3.2 | 0.00 | 0.00 | 0.00 | 69 | 1011.3 |
| 20260505203045 | 10 | 0.0 | 0.0 | 0.00 | 0.00 | 0.00 | 69 | 1011.2 | |
| 20260505202036 | 10 | 0.0 | 0.0 | 0.00 | 0.00 | 0.00 | 69 | 1011.1 | |
| 20260505201034 | 10 | 0.0 | 3.2 | 0.00 | 0.00 | 0.00 | 68 | 1011.2 | |
| 20260505200031 | 11 | 0.0 | 3.2 | 0.00 | 0.00 | 0.00 | 67 | 1011.2 | |
| 20260505195025 | 11 | 0.0 | 0.0 | 0.00 | 0.00 | 0.00 | 66 | 1011.2 | |
| 20260505194020 | 11 | 0.0 | 0.0 | 0.00 | 0.00 | 0.00 | 67 | 1011.3 | |
| 20260505193042 | 11 | 0.0 | 0.0 | 0.00 | 0.00 | 0.00 | 66 | 1011.2 | |
| 20260505192039 | 11 | 0.0 | 3.2 | 0.00 | 0.00 | 0.00 | 66 | 1011.1 | |
| 20260505191036 | 12 | 0.0 | 3.2 | 0.00 | 0.00 | 0.00 | 65 | 1011.0 | |
| 20260505190033 | 12 | 0.0 | 0.0 | 0.00 | 0.00 | 0.00 | 65 | 1011.1 | |
| 20260505185031 | 12 | 0 | 0.0 | 3.2 | 0.00 | 0.00 | 0.00 | 65 | 1011.1 |
| 20260505184028 | 12 | 338 | 0.0 | 3.2 | 0.00 | 0.00 | 0.00 | 65 | 1011.1 |
| 20260505183026 | 12 | 0.0 | 3.2 | 0.00 | 0.00 | 0.00 | 65 | 1011.2 | |
| 20260505182023 | 12 | 338 | 0.0 | 3.2 | 0.00 | 0.00 | 0.00 | 64 | 1011.2 |
| 20260505181020 | 13 | 0.0 | 3.2 | 0.00 | 0.00 | 0.00 | 65 | 1011.2 | |
| 20260505180018 | 13 | 212 | 0.0 | 3.2 | 0.00 | 0.00 | 0.00 | 63 | 1011.3 |
| 20260505175015 | 13 | 11 | 1.6 | 9.7 | 0.00 | 0.00 | 0.00 | 63 | 1011.3 |
| 20260505174113 | 13 | 338 | 0.0 | 3.2 | 0.00 | 0.00 | 0.00 | 63 | 1011.3 |
| 20260505173110 | 13 | 55 | 0.0 | 6.4 | 0.00 | 0.00 | 0.00 | 63 | 1011.4 |
| 20260505172108 | 13 | 45 | 0.0 | 3.2 | 0.00 | 0.00 | 0.00 | 64 | 1011.5 |
| 20260505171105 | 13 | 315 | 0.0 | 3.2 | 0.00 | 0.00 | 0.00 | 65 | 1011.6 |
| 20260505165059 | 13 | 109 | 0.0 | 3.2 | 0.00 | 0.00 | 0.00 | 64 | 1011.6 |
| 20260505164057 | 13 | 122 | 1.6 | 3.2 | 0.00 | 0.00 | 0.00 | 64 | 1011.8 |
| 20260505163054 | 13 | 102 | 1.6 | 6.4 | 0.00 | 0.00 | 0.00 | 64 | 1011.8 |
| 20260505162051 | 13 | 175 | 1.6 | 6.4 | 0.00 | 0.00 | 0.00 | 65 | 1011.9 |
| 20260505161049 | 13 | 23 | 0.0 | 3.2 | 0.00 | 0.00 | 0.00 | 65 | 1011.9 |
| 20260505153038 | 14 | 326 | 1.6 | 6.4 | 0.00 | 0.00 | 0.00 | 65 | 1012.1 |
| 20260505152036 | 14 | 311 | 1.6 | 3.2 | 0.00 | 0.00 | 0.00 | 65 | 1012.3 |
| 20260505151033 | 14 | 327 | 0.0 | 6.4 | 0.00 | 0.00 | 0.00 | 64 | 1012.3 |